sensor_id;sensor_type;location;lat;lon;timestamp;P1;durP1;ratioP1;P2;durP2;ratioP2
35245;SDS011;21379;50.962;6.960;2022-12-20T00:00:52;1.75;;;0.93;;
35245;SDS011;21379;50.962;6.960;2022-12-20T00:03:19;1.88;;;1.30;;
35245;SDS011;21379;50.962;6.960;2022-12-20T00:05:46;2.88;;;1.30;;
35245;SDS011;21379;50.962;6.960;2022-12-20T00:08:13;2.22;;;1.20;;
35245;SDS011;21379;50.962;6.960;2022-12-20T00:10:43;3.25;;;1.08;;
35245;SDS011;21379;50.962;6.960;2022-12-20T00:13:11;1.10;;;0.93;;
35245;SDS011;21379;50.962;6.960;2022-12-20T00:15:38;7.18;;;1.65;;
35245;SDS011;21379;50.962;6.960;2022-12-20T00:18:05;1.50;;;1.05;;
35245;SDS011;21379;50.962;6.960;2022-12-20T00:20:32;4.28;;;1.42;;
35245;SDS011;21379;50.962;6.960;2022-12-20T00:22:59;2.10;;;1.33;;
35245;SDS011;21379;50.962;6.960;2022-12-20T00:25:26;3.35;;;1.30;;
35245;SDS011;21379;50.962;6.960;2022-12-20T00:27:54;2.20;;;1.00;;
35245;SDS011;21379;50.962;6.960;2022-12-20T00:30:21;3.20;;;1.00;;
35245;SDS011;21379;50.962;6.960;2022-12-20T00:32:48;4.43;;;1.10;;
35245;SDS011;21379;50.962;6.960;2022-12-20T00:35:15;2.58;;;1.30;;
35245;SDS011;21379;50.962;6.960;2022-12-20T00:37:42;8.15;;;1.48;;
35245;SDS011;21379;50.962;6.960;2022-12-20T00:40:09;2.88;;;1.30;;
35245;SDS011;21379;50.962;6.960;2022-12-20T00:42:35;2.28;;;1.40;;
35245;SDS011;21379;50.962;6.960;2022-12-20T00:45:04;3.20;;;1.30;;
35245;SDS011;21379;50.962;6.960;2022-12-20T00:47:31;4.43;;;1.27;;
35245;SDS011;21379;50.962;6.960;2022-12-20T00:49:59;2.35;;;1.40;;
35245;SDS011;21379;50.962;6.960;2022-12-20T00:52:25;4.90;;;1.52;;
35245;SDS011;21379;50.962;6.960;2022-12-20T00:54:52;7.43;;;2.20;;
35245;SDS011;21379;50.962;6.960;2022-12-20T00:57:19;6.43;;;1.85;;
35245;SDS011;21379;50.962;6.960;2022-12-20T00:59:46;2.60;;;1.45;;
35245;SDS011;21379;50.962;6.960;2022-12-20T01:02:14;6.43;;;1.95;;
35245;SDS011;21379;50.962;6.960;2022-12-20T01:04:41;5.03;;;2.20;;
35245;SDS011;21379;50.962;6.960;2022-12-20T01:07:08;6.15;;;1.80;;
35245;SDS011;21379;50.962;6.960;2022-12-20T01:09:35;6.93;;;1.75;;
35245;SDS011;21379;50.962;6.960;2022-12-20T01:12:02;1.95;;;1.48;;
35245;SDS011;21379;50.962;6.960;2022-12-20T01:14:29;9.00;;;2.50;;
35245;SDS011;21379;50.962;6.960;2022-12-20T01:16:56;5.68;;;2.05;;
35245;SDS011;21379;50.962;6.960;2022-12-20T01:19:24;6.20;;;2.15;;
35245;SDS011;21379;50.962;6.960;2022-12-20T01:21:51;4.05;;;2.33;;
35245;SDS011;21379;50.962;6.960;2022-12-20T01:24:18;3.58;;;1.92;;
35245;SDS011;21379;50.962;6.960;2022-12-20T01:26:45;2.78;;;1.50;;
35245;SDS011;21379;50.962;6.960;2022-12-20T01:29:12;3.80;;;1.73;;
35245;SDS011;21379;50.962;6.960;2022-12-20T01:31:39;2.15;;;1.80;;
35245;SDS011;21379;50.962;6.960;2022-12-20T01:34:06;5.45;;;1.80;;
35245;SDS011;21379;50.962;6.960;2022-12-20T01:36:35;5.32;;;1.77;;
35245;SDS011;21379;50.962;6.960;2022-12-20T01:39:04;3.60;;;2.20;;
35245;SDS011;21379;50.962;6.960;2022-12-20T01:41:32;4.35;;;1.60;;
35245;SDS011;21379;50.962;6.960;2022-12-20T01:44:02;3.50;;;2.08;;
35245;SDS011;21379;50.962;6.960;2022-12-20T01:46:30;2.83;;;1.60;;
35245;SDS011;21379;50.962;6.960;2022-12-20T01:48:59;4.90;;;2.03;;
35245;SDS011;21379;50.962;6.960;2022-12-20T01:51:30;4.15;;;2.45;;
35245;SDS011;21379;50.962;6.960;2022-12-20T01:54:02;5.10;;;1.90;;
35245;SDS011;21379;50.962;6.960;2022-12-20T01:56:32;3.33;;;1.90;;
35245;SDS011;21379;50.962;6.960;2022-12-20T01:59:00;1.88;;;1.30;;
35245;SDS011;21379;50.962;6.960;2022-12-20T02:01:27;3.20;;;1.52;;
35245;SDS011;21379;50.962;6.960;2022-12-20T02:03:54;7.15;;;1.70;;
35245;SDS011;21379;50.962;6.960;2022-12-20T02:06:22;3.35;;;1.65;;
35245;SDS011;21379;50.962;6.960;2022-12-20T02:08:50;1.80;;;1.38;;
35245;SDS011;21379;50.962;6.960;2022-12-20T02:11:27;3.85;;;1.30;;
35245;SDS011;21379;50.962;6.960;2022-12-20T02:14:22;4.38;;;1.40;;
35245;SDS011;21379;50.962;6.960;2022-12-20T02:17:02;1.55;;;1.27;;
35245;SDS011;21379;50.962;6.960;2022-12-20T02:19:43;4.35;;;1.88;;
35245;SDS011;21379;50.962;6.960;2022-12-20T02:22:25;2.22;;;1.48;;
35245;SDS011;21379;50.962;6.960;2022-12-20T02:25:04;5.55;;;1.45;;
35245;SDS011;21379;50.962;6.960;2022-12-20T02:27:47;1.92;;;1.55;;
35245;SDS011;21379;50.962;6.960;2022-12-20T02:30:20;4.55;;;1.73;;
35245;SDS011;21379;50.962;6.960;2022-12-20T02:32:51;2.42;;;1.50;;
35245;SDS011;21379;50.962;6.960;2022-12-20T02:35:24;2.42;;;1.65;;
35245;SDS011;21379;50.962;6.960;2022-12-20T02:37:53;3.00;;;2.25;;
35245;SDS011;21379;50.962;6.960;2022-12-20T02:40:22;5.60;;;2.28;;
35245;SDS011;21379;50.962;6.960;2022-12-20T02:42:53;5.10;;;2.35;;
35245;SDS011;21379;50.962;6.960;2022-12-20T02:45:26;5.70;;;2.35;;
35245;SDS011;21379;50.962;6.960;2022-12-20T02:47:58;3.67;;;2.03;;
35245;SDS011;21379;50.962;6.960;2022-12-20T02:50:29;12.70;;;2.10;;
35245;SDS011;21379;50.962;6.960;2022-12-20T02:52:59;3.38;;;2.03;;
35245;SDS011;21379;50.962;6.960;2022-12-20T02:55:30;5.13;;;2.58;;
35245;SDS011;21379;50.962;6.960;2022-12-20T02:58:04;2.65;;;1.92;;
35245;SDS011;21379;50.962;6.960;2022-12-20T03:00:37;5.70;;;2.30;;
35245;SDS011;21379;50.962;6.960;2022-12-20T03:03:07;4.07;;;2.33;;
35245;SDS011;21379;50.962;6.960;2022-12-20T03:05:50;6.43;;;3.03;;
35245;SDS011;21379;50.962;6.960;2022-12-20T03:08:19;4.47;;;2.05;;
35245;SDS011;21379;50.962;6.960;2022-12-20T03:10:46;6.93;;;2.38;;
35245;SDS011;21379;50.962;6.960;2022-12-20T03:13:14;5.22;;;2.00;;
35245;SDS011;21379;50.962;6.960;2022-12-20T03:15:42;3.45;;;1.83;;
35245;SDS011;21379;50.962;6.960;2022-12-20T03:18:09;4.38;;;2.95;;
35245;SDS011;21379;50.962;6.960;2022-12-20T03:20:36;3.40;;;2.28;;
35245;SDS011;21379;50.962;6.960;2022-12-20T03:23:03;4.10;;;1.52;;
35245;SDS011;21379;50.962;6.960;2022-12-20T03:25:30;4.68;;;2.72;;
35245;SDS011;21379;50.962;6.960;2022-12-20T03:27:57;2.95;;;1.63;;
35245;SDS011;21379;50.962;6.960;2022-12-20T03:30:24;3.40;;;2.17;;
35245;SDS011;21379;50.962;6.960;2022-12-20T03:32:52;8.20;;;2.78;;
35245;SDS011;21379;50.962;6.960;2022-12-20T03:35:19;6.78;;;2.72;;
35245;SDS011;21379;50.962;6.960;2022-12-20T03:37:45;3.47;;;2.00;;
35245;SDS011;21379;50.962;6.960;2022-12-20T03:40:12;2.85;;;1.98;;
35245;SDS011;21379;50.962;6.960;2022-12-20T03:42:40;4.15;;;2.17;;
35245;SDS011;21379;50.962;6.960;2022-12-20T03:45:07;5.38;;;1.90;;
35245;SDS011;21379;50.962;6.960;2022-12-20T03:47:34;3.28;;;1.63;;
35245;SDS011;21379;50.962;6.960;2022-12-20T03:50:03;9.30;;;2.33;;
35245;SDS011;21379;50.962;6.960;2022-12-20T03:52:31;4.78;;;2.10;;
35245;SDS011;21379;50.962;6.960;2022-12-20T03:54:58;3.25;;;2.40;;
35245;SDS011;21379;50.962;6.960;2022-12-20T03:57:25;4.38;;;2.22;;
35245;SDS011;21379;50.962;6.960;2022-12-20T03:59:52;5.00;;;2.60;;
35245;SDS011;21379;50.962;6.960;2022-12-20T04:02:19;4.10;;;2.35;;
35245;SDS011;21379;50.962;6.960;2022-12-20T04:04:46;6.57;;;2.15;;
35245;SDS011;21379;50.962;6.960;2022-12-20T04:07:14;7.40;;;2.47;;
35245;SDS011;21379;50.962;6.960;2022-12-20T04:09:41;2.90;;;1.83;;
35245;SDS011;21379;50.962;6.960;2022-12-20T04:12:08;3.30;;;2.05;;
35245;SDS011;21379;50.962;6.960;2022-12-20T04:14:35;6.78;;;3.00;;
35245;SDS011;21379;50.962;6.960;2022-12-20T04:17:02;2.83;;;1.92;;
35245;SDS011;21379;50.962;6.960;2022-12-20T04:19:29;4.80;;;2.50;;
35245;SDS011;21379;50.962;6.960;2022-12-20T04:21:56;7.90;;;2.28;;
35245;SDS011;21379;50.962;6.960;2022-12-20T04:24:24;4.60;;;2.80;;
35245;SDS011;21379;50.962;6.960;2022-12-20T04:26:51;7.40;;;2.15;;
35245;SDS011;21379;50.962;6.960;2022-12-20T04:29:18;4.03;;;2.33;;
35245;SDS011;21379;50.962;6.960;2022-12-20T04:31:45;6.15;;;2.97;;
35245;SDS011;21379;50.962;6.960;2022-12-20T04:34:12;5.88;;;2.60;;
35245;SDS011;21379;50.962;6.960;2022-12-20T04:36:38;4.75;;;2.72;;
35245;SDS011;21379;50.962;6.960;2022-12-20T04:39:05;4.90;;;2.25;;
35245;SDS011;21379;50.962;6.960;2022-12-20T04:41:33;10.27;;;1.92;;
35245;SDS011;21379;50.962;6.960;2022-12-20T04:44:00;7.45;;;2.42;;
35245;SDS011;21379;50.962;6.960;2022-12-20T04:46:27;4.05;;;2.17;;
35245;SDS011;21379;50.962;6.960;2022-12-20T04:48:54;8.13;;;2.63;;
35245;SDS011;21379;50.962;6.960;2022-12-20T04:51:20;13.50;;;3.08;;
35245;SDS011;21379;50.962;6.960;2022-12-20T04:53:47;3.60;;;2.45;;
35245;SDS011;21379;50.962;6.960;2022-12-20T04:56:14;7.57;;;3.05;;
35245;SDS011;21379;50.962;6.960;2022-12-20T04:58:45;6.53;;;2.78;;
35245;SDS011;21379;50.962;6.960;2022-12-20T05:01:12;12.07;;;3.03;;
35245;SDS011;21379;50.962;6.960;2022-12-20T05:03:40;5.35;;;2.80;;
35245;SDS011;21379;50.962;6.960;2022-12-20T05:06:07;8.13;;;2.92;;
35245;SDS011;21379;50.962;6.960;2022-12-20T05:08:34;9.52;;;3.38;;
35245;SDS011;21379;50.962;6.960;2022-12-20T05:11:02;4.00;;;2.67;;
35245;SDS011;21379;50.962;6.960;2022-12-20T05:13:29;6.05;;;2.67;;
35245;SDS011;21379;50.962;6.960;2022-12-20T05:15:58;5.60;;;2.72;;
35245;SDS011;21379;50.962;6.960;2022-12-20T05:18:26;7.50;;;3.05;;
35245;SDS011;21379;50.962;6.960;2022-12-20T05:20:56;7.45;;;2.53;;
35245;SDS011;21379;50.962;6.960;2022-12-20T05:23:41;6.90;;;3.15;;
35245;SDS011;21379;50.962;6.960;2022-12-20T05:26:26;4.38;;;1.70;;
35245;SDS011;21379;50.962;6.960;2022-12-20T05:28:55;5.95;;;3.05;;
35245;SDS011;21379;50.962;6.960;2022-12-20T05:31:23;5.82;;;2.97;;
35245;SDS011;21379;50.962;6.960;2022-12-20T05:33:50;5.72;;;2.80;;
35245;SDS011;21379;50.962;6.960;2022-12-20T05:36:17;3.78;;;2.30;;
35245;SDS011;21379;50.962;6.960;2022-12-20T05:38:44;4.32;;;2.55;;
35245;SDS011;21379;50.962;6.960;2022-12-20T05:41:11;4.47;;;2.70;;
35245;SDS011;21379;50.962;6.960;2022-12-20T05:43:38;6.65;;;2.60;;
35245;SDS011;21379;50.962;6.960;2022-12-20T05:46:05;7.95;;;3.30;;
35245;SDS011;21379;50.962;6.960;2022-12-20T05:48:33;10.65;;;2.85;;
35245;SDS011;21379;50.962;6.960;2022-12-20T05:51:00;5.03;;;2.85;;
35245;SDS011;21379;50.962;6.960;2022-12-20T05:53:27;6.93;;;3.08;;
35245;SDS011;21379;50.962;6.960;2022-12-20T05:55:54;4.20;;;2.58;;
35245;SDS011;21379;50.962;6.960;2022-12-20T05:58:21;7.72;;;2.92;;
35245;SDS011;21379;50.962;6.960;2022-12-20T06:00:48;6.63;;;2.53;;
35245;SDS011;21379;50.962;6.960;2022-12-20T06:03:15;9.43;;;2.95;;
35245;SDS011;21379;50.962;6.960;2022-12-20T06:05:44;9.55;;;3.20;;
35245;SDS011;21379;50.962;6.960;2022-12-20T06:08:11;9.38;;;2.53;;
35245;SDS011;21379;50.962;6.960;2022-12-20T06:10:38;8.80;;;3.30;;
35245;SDS011;21379;50.962;6.960;2022-12-20T06:13:06;12.32;;;3.47;;
35245;SDS011;21379;50.962;6.960;2022-12-20T06:15:34;4.72;;;2.55;;
35245;SDS011;21379;50.962;6.960;2022-12-20T06:18:01;4.93;;;3.17;;
35245;SDS011;21379;50.962;6.960;2022-12-20T06:20:28;7.05;;;4.30;;
35245;SDS011;21379;50.962;6.960;2022-12-20T06:22:56;7.95;;;3.20;;
35245;SDS011;21379;50.962;6.960;2022-12-20T06:25:24;8.35;;;2.90;;
35245;SDS011;21379;50.962;6.960;2022-12-20T06:27:51;5.00;;;2.80;;
35245;SDS011;21379;50.962;6.960;2022-12-20T06:30:18;4.30;;;2.47;;
35245;SDS011;21379;50.962;6.960;2022-12-20T06:32:45;7.60;;;2.53;;
35245;SDS011;21379;50.962;6.960;2022-12-20T06:35:12;7.07;;;2.63;;
35245;SDS011;21379;50.962;6.960;2022-12-20T06:37:39;10.05;;;3.00;;
35245;SDS011;21379;50.962;6.960;2022-12-20T06:40:09;8.95;;;3.58;;
35245;SDS011;21379;50.962;6.960;2022-12-20T06:42:37;3.92;;;2.30;;
35245;SDS011;21379;50.962;6.960;2022-12-20T06:45:04;6.22;;;2.75;;
35245;SDS011;21379;50.962;6.960;2022-12-20T06:47:32;5.72;;;2.80;;
35245;SDS011;21379;50.962;6.960;2022-12-20T06:49:59;7.13;;;3.08;;
35245;SDS011;21379;50.962;6.960;2022-12-20T06:52:25;4.63;;;3.20;;
35245;SDS011;21379;50.962;6.960;2022-12-20T06:54:52;3.00;;;2.67;;
35245;SDS011;21379;50.962;6.960;2022-12-20T06:57:20;6.15;;;2.50;;
35245;SDS011;21379;50.962;6.960;2022-12-20T06:59:47;3.60;;;2.00;;
35245;SDS011;21379;50.962;6.960;2022-12-20T07:02:14;4.65;;;2.25;;
35245;SDS011;21379;50.962;6.960;2022-12-20T07:04:41;3.22;;;1.90;;
35245;SDS011;21379;50.962;6.960;2022-12-20T07:07:08;7.45;;;2.85;;
35245;SDS011;21379;50.962;6.960;2022-12-20T07:09:36;7.18;;;2.83;;
35245;SDS011;21379;50.962;6.960;2022-12-20T07:12:05;4.60;;;2.40;;
35245;SDS011;21379;50.962;6.960;2022-12-20T07:14:33;4.13;;;2.45;;
35245;SDS011;21379;50.962;6.960;2022-12-20T07:17:00;11.52;;;2.50;;
35245;SDS011;21379;50.962;6.960;2022-12-20T07:19:27;5.93;;;2.30;;
35245;SDS011;21379;50.962;6.960;2022-12-20T07:21:54;4.63;;;2.85;;
35245;SDS011;21379;50.962;6.960;2022-12-20T07:24:21;4.50;;;2.42;;
35245;SDS011;21379;50.962;6.960;2022-12-20T07:26:48;8.73;;;2.47;;
35245;SDS011;21379;50.962;6.960;2022-12-20T07:29:15;2.95;;;2.40;;
35245;SDS011;21379;50.962;6.960;2022-12-20T07:31:43;3.83;;;2.08;;
35245;SDS011;21379;50.962;6.960;2022-12-20T07:34:10;5.40;;;2.33;;
35245;SDS011;21379;50.962;6.960;2022-12-20T07:36:37;6.03;;;2.53;;
35245;SDS011;21379;50.962;6.960;2022-12-20T07:39:03;4.88;;;2.92;;
35245;SDS011;21379;50.962;6.960;2022-12-20T07:41:30;3.97;;;2.40;;
35245;SDS011;21379;50.962;6.960;2022-12-20T07:43:57;3.30;;;1.88;;
35245;SDS011;21379;50.962;6.960;2022-12-20T07:46:24;3.70;;;2.47;;
35245;SDS011;21379;50.962;6.960;2022-12-20T07:48:53;5.28;;;2.65;;
35245;SDS011;21379;50.962;6.960;2022-12-20T07:51:22;5.38;;;2.55;;
35245;SDS011;21379;50.962;6.960;2022-12-20T07:53:51;6.25;;;2.78;;
35245;SDS011;21379;50.962;6.960;2022-12-20T07:56:21;7.70;;;2.53;;
35245;SDS011;21379;50.962;6.960;2022-12-20T07:58:48;3.92;;;2.15;;
35245;SDS011;21379;50.962;6.960;2022-12-20T08:01:17;4.80;;;2.35;;
35245;SDS011;21379;50.962;6.960;2022-12-20T08:03:46;3.97;;;2.28;;
35245;SDS011;21379;50.962;6.960;2022-12-20T08:06:17;4.53;;;2.35;;
35245;SDS011;21379;50.962;6.960;2022-12-20T08:08:45;6.25;;;2.40;;
35245;SDS011;21379;50.962;6.960;2022-12-20T08:11:16;4.40;;;2.67;;
35245;SDS011;21379;50.962;6.960;2022-12-20T08:13:45;4.43;;;2.05;;
35245;SDS011;21379;50.962;6.960;2022-12-20T08:16:13;4.28;;;2.17;;
35245;SDS011;21379;50.962;6.960;2022-12-20T08:18:40;9.98;;;2.53;;
35245;SDS011;21379;50.962;6.960;2022-12-20T08:21:07;5.05;;;2.08;;
35245;SDS011;21379;50.962;6.960;2022-12-20T08:23:38;3.67;;;1.98;;
35245;SDS011;21379;50.962;6.960;2022-12-20T08:26:05;5.55;;;2.60;;
35245;SDS011;21379;50.962;6.960;2022-12-20T08:28:32;3.85;;;1.95;;
35245;SDS011;21379;50.962;6.960;2022-12-20T08:30:59;3.30;;;2.60;;
35245;SDS011;21379;50.962;6.960;2022-12-20T08:33:26;4.53;;;2.50;;
35245;SDS011;21379;50.962;6.960;2022-12-20T08:35:56;4.45;;;2.30;;
35245;SDS011;21379;50.962;6.960;2022-12-20T08:38:24;6.50;;;2.60;;
35245;SDS011;21379;50.962;6.960;2022-12-20T08:40:53;4.82;;;2.38;;
35245;SDS011;21379;50.962;6.960;2022-12-20T08:43:20;9.02;;;3.45;;
35245;SDS011;21379;50.962;6.960;2022-12-20T08:45:51;6.03;;;2.33;;
35245;SDS011;21379;50.962;6.960;2022-12-20T08:48:18;4.50;;;2.47;;
35245;SDS011;21379;50.962;6.960;2022-12-20T08:50:45;4.82;;;2.45;;
35245;SDS011;21379;50.962;6.960;2022-12-20T08:53:12;6.85;;;2.63;;
35245;SDS011;21379;50.962;6.960;2022-12-20T08:55:39;5.07;;;3.08;;
35245;SDS011;21379;50.962;6.960;2022-12-20T08:58:07;4.53;;;2.33;;
35245;SDS011;21379;50.962;6.960;2022-12-20T09:00:34;4.60;;;2.55;;
35245;SDS011;21379;50.962;6.960;2022-12-20T09:03:01;5.15;;;2.55;;
35245;SDS011;21379;50.962;6.960;2022-12-20T09:05:28;6.47;;;2.95;;
35245;SDS011;21379;50.962;6.960;2022-12-20T09:07:55;8.23;;;3.10;;
35245;SDS011;21379;50.962;6.960;2022-12-20T09:10:21;5.70;;;2.60;;
35245;SDS011;21379;50.962;6.960;2022-12-20T09:12:48;4.80;;;2.83;;
35245;SDS011;21379;50.962;6.960;2022-12-20T09:15:16;5.82;;;2.72;;
35245;SDS011;21379;50.962;6.960;2022-12-20T09:17:43;9.95;;;2.53;;
35245;SDS011;21379;50.962;6.960;2022-12-20T09:20:11;10.63;;;3.28;;
35245;SDS011;21379;50.962;6.960;2022-12-20T09:22:39;8.98;;;2.92;;
35245;SDS011;21379;50.962;6.960;2022-12-20T09:25:06;12.80;;;2.88;;
35245;SDS011;21379;50.962;6.960;2022-12-20T09:27:34;8.90;;;2.38;;
35245;SDS011;21379;50.962;6.960;2022-12-20T09:30:00;4.63;;;2.63;;
35245;SDS011;21379;50.962;6.960;2022-12-20T09:32:29;3.97;;;2.40;;
35245;SDS011;21379;50.962;6.960;2022-12-20T09:34:55;8.80;;;3.70;;
35245;SDS011;21379;50.962;6.960;2022-12-20T09:37:22;10.93;;;4.07;;
35245;SDS011;21379;50.962;6.960;2022-12-20T09:39:49;11.00;;;3.72;;
35245;SDS011;21379;50.962;6.960;2022-12-20T09:42:16;4.57;;;2.33;;
35245;SDS011;21379;50.962;6.960;2022-12-20T09:44:47;8.70;;;3.90;;
35245;SDS011;21379;50.962;6.960;2022-12-20T09:47:15;7.18;;;3.38;;
35245;SDS011;21379;50.962;6.960;2022-12-20T09:49:47;5.00;;;2.88;;
35245;SDS011;21379;50.962;6.960;2022-12-20T09:52:24;9.95;;;3.10;;
35245;SDS011;21379;50.962;6.960;2022-12-20T09:54:57;11.02;;;3.50;;
35245;SDS011;21379;50.962;6.960;2022-12-20T09:57:33;6.30;;;3.08;;
35245;SDS011;21379;50.962;6.960;2022-12-20T10:00:11;6.97;;;3.63;;
35245;SDS011;21379;50.962;6.960;2022-12-20T10:02:39;6.97;;;3.08;;
35245;SDS011;21379;50.962;6.960;2022-12-20T10:05:10;10.02;;;3.03;;
35245;SDS011;21379;50.962;6.960;2022-12-20T10:07:40;7.85;;;2.70;;
35245;SDS011;21379;50.962;6.960;2022-12-20T10:10:19;7.57;;;3.28;;
35245;SDS011;21379;50.962;6.960;2022-12-20T10:12:58;6.20;;;3.05;;
35245;SDS011;21379;50.962;6.960;2022-12-20T10:15:32;6.13;;;2.88;;
35245;SDS011;21379;50.962;6.960;2022-12-20T10:18:19;6.22;;;2.92;;
35245;SDS011;21379;50.962;6.960;2022-12-20T10:20:58;3.60;;;2.22;;
35245;SDS011;21379;50.962;6.960;2022-12-20T10:23:32;9.65;;;2.30;;
35245;SDS011;21379;50.962;6.960;2022-12-20T10:26:07;5.43;;;2.85;;
35245;SDS011;21379;50.962;6.960;2022-12-20T10:28:35;8.93;;;3.53;;
35245;SDS011;21379;50.962;6.960;2022-12-20T10:31:04;5.45;;;1.63;;
35245;SDS011;21379;50.962;6.960;2022-12-20T10:33:33;4.50;;;1.73;;
35245;SDS011;21379;50.962;6.960;2022-12-20T10:36:18;3.65;;;2.10;;
35245;SDS011;21379;50.962;6.960;2022-12-20T10:38:47;3.53;;;1.50;;
35245;SDS011;21379;50.962;6.960;2022-12-20T10:41:15;2.63;;;1.67;;
35245;SDS011;21379;50.962;6.960;2022-12-20T10:43:44;5.13;;;2.13;;
35245;SDS011;21379;50.962;6.960;2022-12-20T10:46:13;3.15;;;2.17;;
35245;SDS011;21379;50.962;6.960;2022-12-20T10:48:42;2.30;;;1.73;;
35245;SDS011;21379;50.962;6.960;2022-12-20T10:51:13;3.97;;;1.88;;
35245;SDS011;21379;50.962;6.960;2022-12-20T10:53:56;3.15;;;1.63;;
35245;SDS011;21379;50.962;6.960;2022-12-20T10:56:26;2.35;;;1.55;;
35245;SDS011;21379;50.962;6.960;2022-12-20T10:58:55;3.80;;;1.40;;
35245;SDS011;21379;50.962;6.960;2022-12-20T11:01:25;6.35;;;2.05;;
35245;SDS011;21379;50.962;6.960;2022-12-20T11:03:59;7.32;;;2.92;;
35245;SDS011;21379;50.962;6.960;2022-12-20T11:06:28;5.55;;;1.98;;
35245;SDS011;21379;50.962;6.960;2022-12-20T11:09:16;2.45;;;1.67;;
35245;SDS011;21379;50.962;6.960;2022-12-20T11:11:56;5.40;;;1.92;;
35245;SDS011;21379;50.962;6.960;2022-12-20T11:14:24;3.80;;;1.75;;
35245;SDS011;21379;50.962;6.960;2022-12-20T11:16:54;4.82;;;2.05;;
35245;SDS011;21379;50.962;6.960;2022-12-20T11:19:44;5.95;;;1.75;;
35245;SDS011;21379;50.962;6.960;2022-12-20T11:22:29;5.60;;;1.90;;
35245;SDS011;21379;50.962;6.960;2022-12-20T11:25:16;2.47;;;1.67;;
35245;SDS011;21379;50.962;6.960;2022-12-20T11:30:29;5.03;;;1.60;;
35245;SDS011;21379;50.962;6.960;2022-12-20T11:35:59;4.80;;;1.73;;
35245;SDS011;21379;50.962;6.960;2022-12-20T11:38:34;2.10;;;1.45;;
35245;SDS011;21379;50.962;6.960;2022-12-20T11:41:17;7.60;;;2.10;;
35245;SDS011;21379;50.962;6.960;2022-12-20T11:43:55;7.33;;;2.00;;
35245;SDS011;21379;50.962;6.960;2022-12-20T11:46:36;4.22;;;1.80;;
35245;SDS011;21379;50.962;6.960;2022-12-20T11:49:16;5.32;;;1.65;;
35245;SDS011;21379;50.962;6.960;2022-12-20T11:52:09;6.35;;;3.30;;
35245;SDS011;21379;50.962;6.960;2022-12-20T11:54:47;9.50;;;1.95;;
35245;SDS011;21379;50.962;6.960;2022-12-20T11:59:53;5.18;;;1.55;;
35245;SDS011;21379;50.962;6.960;2022-12-20T12:02:24;4.78;;;1.63;;
35245;SDS011;21379;50.962;6.960;2022-12-20T12:04:58;8.20;;;2.05;;
35245;SDS011;21379;50.962;6.960;2022-12-20T12:07:29;5.78;;;1.80;;
35245;SDS011;21379;50.962;6.960;2022-12-20T12:09:59;5.20;;;2.80;;
35245;SDS011;21379;50.962;6.960;2022-12-20T12:12:31;3.65;;;1.60;;
35245;SDS011;21379;50.962;6.960;2022-12-20T12:15:02;6.25;;;2.15;;
35245;SDS011;21379;50.962;6.960;2022-12-20T12:17:37;4.15;;;2.08;;
35245;SDS011;21379;50.962;6.960;2022-12-20T12:20:19;7.50;;;1.85;;
35245;SDS011;21379;50.962;6.960;2022-12-20T12:22:52;4.70;;;1.52;;
35245;SDS011;21379;50.962;6.960;2022-12-20T12:25:23;7.80;;;1.50;;
35245;SDS011;21379;50.962;6.960;2022-12-20T12:27:51;3.15;;;1.38;;
35245;SDS011;21379;50.962;6.960;2022-12-20T12:30:18;5.28;;;2.17;;
35245;SDS011;21379;50.962;6.960;2022-12-20T12:32:46;4.13;;;2.30;;
35245;SDS011;21379;50.962;6.960;2022-12-20T12:35:22;7.80;;;2.17;;
35245;SDS011;21379;50.962;6.960;2022-12-20T12:44:35;3.58;;;1.75;;
35245;SDS011;21379;50.962;6.960;2022-12-20T12:47:10;5.15;;;1.98;;
35245;SDS011;21379;50.962;6.960;2022-12-20T12:49:40;2.90;;;1.67;;
35245;SDS011;21379;50.962;6.960;2022-12-20T12:52:21;5.32;;;1.85;;
35245;SDS011;21379;50.962;6.960;2022-12-20T12:55:02;5.40;;;1.77;;
35245;SDS011;21379;50.962;6.960;2022-12-20T12:57:29;4.85;;;2.28;;
35245;SDS011;21379;50.962;6.960;2022-12-20T13:03:26;3.28;;;2.03;;
35245;SDS011;21379;50.962;6.960;2022-12-20T13:09:10;9.43;;;2.70;;
35245;SDS011;21379;50.962;6.960;2022-12-20T13:11:44;2.78;;;1.55;;
35245;SDS011;21379;50.962;6.960;2022-12-20T13:20:19;5.88;;;3.17;;
35245;SDS011;21379;50.962;6.960;2022-12-20T13:25:42;4.50;;;2.83;;
35245;SDS011;21379;50.962;6.960;2022-12-20T13:34:22;6.57;;;2.72;;
35245;SDS011;21379;50.962;6.960;2022-12-20T13:37:18;10.93;;;3.33;;
35245;SDS011;21379;50.962;6.960;2022-12-20T13:39:51;14.10;;;2.83;;
35245;SDS011;21379;50.962;6.960;2022-12-20T13:42:21;8.27;;;2.70;;
35245;SDS011;21379;50.962;6.960;2022-12-20T13:44:55;9.20;;;3.05;;
35245;SDS011;21379;50.962;6.960;2022-12-20T13:47:43;6.13;;;3.25;;
35245;SDS011;21379;50.962;6.960;2022-12-20T13:53:02;12.18;;;5.60;;
35245;SDS011;21379;50.962;6.960;2022-12-20T13:55:35;12.60;;;3.80;;
35245;SDS011;21379;50.962;6.960;2022-12-20T13:58:03;9.63;;;3.92;;
35245;SDS011;21379;50.962;6.960;2022-12-20T14:00:32;8.95;;;4.03;;
35245;SDS011;21379;50.962;6.960;2022-12-20T14:03:00;9.77;;;3.40;;
35245;SDS011;21379;50.962;6.960;2022-12-20T14:05:30;12.05;;;4.00;;
35245;SDS011;21379;50.962;6.960;2022-12-20T14:08:02;4.32;;;3.10;;
35245;SDS011;21379;50.962;6.960;2022-12-20T14:10:32;9.25;;;3.75;;
35245;SDS011;21379;50.962;6.960;2022-12-20T14:13:00;5.93;;;2.92;;
35245;SDS011;21379;50.962;6.960;2022-12-20T14:15:29;7.32;;;3.83;;
35245;SDS011;21379;50.962;6.960;2022-12-20T14:18:03;8.75;;;3.08;;
35245;SDS011;21379;50.962;6.960;2022-12-20T14:20:31;5.90;;;3.40;;
35245;SDS011;21379;50.962;6.960;2022-12-20T14:23:02;4.97;;;3.08;;
35245;SDS011;21379;50.962;6.960;2022-12-20T14:25:35;9.48;;;3.45;;
35245;SDS011;21379;50.962;6.960;2022-12-20T14:28:08;6.65;;;3.13;;
35245;SDS011;21379;50.962;6.960;2022-12-20T14:30:43;9.23;;;3.33;;
35245;SDS011;21379;50.962;6.960;2022-12-20T14:33:17;6.07;;;3.33;;
35245;SDS011;21379;50.962;6.960;2022-12-20T14:35:48;5.90;;;2.80;;
35245;SDS011;21379;50.962;6.960;2022-12-20T14:38:20;9.63;;;3.47;;
35245;SDS011;21379;50.962;6.960;2022-12-20T14:40:48;12.25;;;3.75;;
35245;SDS011;21379;50.962;6.960;2022-12-20T14:43:15;5.47;;;2.95;;
35245;SDS011;21379;50.962;6.960;2022-12-20T14:46:14;8.65;;;3.38;;
35245;SDS011;21379;50.962;6.960;2022-12-20T14:48:43;6.18;;;3.10;;
35245;SDS011;21379;50.962;6.960;2022-12-20T14:51:12;7.47;;;3.70;;
35245;SDS011;21379;50.962;6.960;2022-12-20T14:53:44;8.90;;;3.22;;
35245;SDS011;21379;50.962;6.960;2022-12-20T14:56:13;4.95;;;3.47;;
35245;SDS011;21379;50.962;6.960;2022-12-20T14:58:44;13.32;;;3.50;;
35245;SDS011;21379;50.962;6.960;2022-12-20T15:01:18;8.10;;;3.55;;
35245;SDS011;21379;50.962;6.960;2022-12-20T15:03:49;4.85;;;2.92;;
35245;SDS011;21379;50.962;6.960;2022-12-20T15:06:31;2.70;;;1.98;;
35245;SDS011;21379;50.962;6.960;2022-12-20T15:09:00;12.70;;;2.80;;
35245;SDS011;21379;50.962;6.960;2022-12-20T15:11:27;6.43;;;3.05;;
35245;SDS011;21379;50.962;6.960;2022-12-20T15:13:54;6.20;;;2.70;;
35245;SDS011;21379;50.962;6.960;2022-12-20T15:16:23;3.67;;;2.50;;
35245;SDS011;21379;50.962;6.960;2022-12-20T15:18:52;3.25;;;1.83;;
35245;SDS011;21379;50.962;6.960;2022-12-20T15:21:26;8.18;;;2.47;;
35245;SDS011;21379;50.962;6.960;2022-12-20T15:23:56;2.75;;;1.95;;
35245;SDS011;21379;50.962;6.960;2022-12-20T15:26:26;5.93;;;2.58;;
35245;SDS011;21379;50.962;6.960;2022-12-20T15:28:54;2.88;;;2.00;;
35245;SDS011;21379;50.962;6.960;2022-12-20T15:31:21;7.05;;;2.55;;
35245;SDS011;21379;50.962;6.960;2022-12-20T15:33:50;3.17;;;1.85;;
35245;SDS011;21379;50.962;6.960;2022-12-20T15:36:19;3.78;;;2.13;;
35245;SDS011;21379;50.962;6.960;2022-12-20T15:38:47;3.53;;;2.03;;
35245;SDS011;21379;50.962;6.960;2022-12-20T15:41:18;4.45;;;2.63;;
35245;SDS011;21379;50.962;6.960;2022-12-20T15:43:46;9.60;;;2.65;;